createdAt,value
2023-04-22T00:00:26.606Z,7.7522
2023-04-22T00:01:28.919Z,7.7685
2023-04-22T00:02:31.265Z,7.7968
2023-04-22T00:03:33.805Z,7.7775
2023-04-22T00:04:33.820Z,7.7860
2023-04-22T00:05:36.134Z,7.8038
2023-04-22T00:06:38.383Z,7.8767
2023-04-22T00:07:40.707Z,7.9672
2023-04-22T00:08:42.981Z,8.0065
2023-04-22T00:09:45.289Z,8.0341
2023-04-22T00:10:47.524Z,8.0295
2023-04-22T00:11:49.815Z,8.0479
2023-04-22T00:12:52.130Z,8.0428
2023-04-22T00:13:54.373Z,8.0341
2023-04-22T00:14:56.643Z,8.0103
2023-04-22T00:15:58.968Z,8.0058
2023-04-22T00:17:01.243Z,8.0280
2023-04-22T00:18:03.661Z,8.0263
2023-04-22T00:19:05.910Z,8.0037
2023-04-22T00:20:08.221Z,7.9693
2023-04-22T00:21:10.447Z,7.9295
2023-04-22T00:22:12.738Z,7.8831
2023-04-22T00:23:14.976Z,7.8590
2023-04-22T00:24:17.225Z,7.8350
2023-04-22T00:25:19.460Z,7.8070
2023-04-22T00:26:21.802Z,7.7772
2023-04-22T00:27:24.062Z,7.7700
2023-04-22T00:28:26.331Z,7.7225
2023-04-22T00:29:28.633Z,7.7036
2023-04-22T00:30:30.841Z,7.7095
2023-04-22T00:31:33.182Z,7.7269
2023-04-22T00:32:35.520Z,7.7492
2023-04-22T00:33:37.751Z,7.7801
2023-04-22T00:34:40.014Z,7.8167
2023-04-22T00:35:42.231Z,7.8011
2023-04-22T00:36:44.497Z,7.7995
2023-04-22T00:37:46.749Z,7.7976
2023-04-22T00:38:49.019Z,7.7944
2023-04-22T00:39:51.235Z,7.7778
2023-04-22T00:40:53.469Z,7.7477
2023-04-22T00:41:55.764Z,7.7138
2023-04-22T00:42:58.043Z,7.6568
2023-04-22T00:44:00.285Z,7.6598
2023-04-22T00:45:02.542Z,7.6409
2023-04-22T00:46:04.840Z,7.6213
2023-04-22T00:47:07.133Z,7.5905
2023-04-22T00:48:09.454Z,7.6098
2023-04-22T00:49:11.763Z,7.6525
2023-04-22T00:50:14.008Z,7.6340
2023-04-22T00:51:16.276Z,7.6270
2023-04-22T00:52:18.609Z,7.6712
2023-04-22T00:53:20.976Z,7.6894
2023-04-22T00:54:23.215Z,7.7244
2023-04-22T00:55:25.474Z,7.7513
2023-04-22T00:56:27.804Z,7.7196
2023-04-22T00:57:30.020Z,7.6681
2023-04-22T00:58:32.419Z,7.6079
2023-04-22T00:59:34.707Z,7.4972
2023-04-22T01:00:37.026Z,7.3321
2023-04-22T01:01:39.306Z,7.2189
2023-04-22T01:02:41.717Z,7.1179
2023-04-22T01:03:44.501Z,7.0568
2023-04-22T01:04:44.206Z,7.0040
2023-04-22T01:05:46.532Z,6.9459
2023-04-22T01:06:49.014Z,6.8919
2023-04-22T01:07:51.280Z,6.8537
2023-04-22T01:08:53.514Z,6.8826
2023-04-22T01:09:55.769Z,6.8891
2023-04-22T01:10:58.037Z,6.8788
2023-04-22T01:12:00.425Z,6.8419
2023-04-22T01:13:02.806Z,6.8211
2023-04-22T01:14:05.076Z,6.8304
2023-04-22T01:15:07.352Z,6.8382
2023-04-22T01:16:09.831Z,6.8616
2023-04-22T01:17:09.709Z,6.8884
2023-04-22T01:18:11.935Z,6.9199
2023-04-22T01:19:14.273Z,6.9389
2023-04-22T01:20:16.486Z,6.8962
2023-04-22T01:21:18.724Z,6.8945
2023-04-22T01:22:21.083Z,6.9180
2023-04-22T01:23:23.602Z,6.9591
2023-04-22T01:24:25.872Z,6.9843
2023-04-22T01:25:28.180Z,7.0246
2023-04-22T01:26:30.473Z,7.0035
2023-04-22T01:27:32.761Z,7.0069
2023-04-22T01:28:35.097Z,6.9670
2023-04-22T01:29:37.708Z,6.9338
2023-04-22T01:30:37.572Z,6.9536
2023-04-22T01:31:39.855Z,6.9708
2023-04-22T01:32:42.109Z,6.9473
2023-04-22T01:33:44.441Z,7.0108
2023-04-22T01:34:46.664Z,7.0678
2023-04-22T01:35:48.897Z,7.1177
2023-04-22T01:36:51.164Z,7.1117
2023-04-22T01:37:53.446Z,7.0751
2023-04-22T01:38:55.740Z,7.0504
2023-04-22T01:39:58.033Z,7.0776
2023-04-22T01:41:00.331Z,7.0786
2023-04-22T01:42:02.583Z,7.0885
2023-04-22T01:43:04.849Z,7.1453
2023-04-22T01:44:07.183Z,7.1769
2023-04-22T01:45:09.485Z,7.2153
2023-04-22T01:46:11.781Z,7.2277
2023-04-22T01:47:13.976Z,7.1906
2023-04-22T01:48:16.303Z,7.1967
2023-04-22T01:49:18.518Z,7.1666
2023-04-22T01:50:20.777Z,7.1629
2023-04-22T01:51:23.134Z,7.1581
2023-04-22T01:52:25.353Z,7.1325
2023-04-22T01:53:27.685Z,7.1117
2023-04-22T01:54:29.962Z,7.0555
2023-04-22T01:55:32.231Z,7.0917
2023-04-22T01:56:34.511Z,7.0757
2023-04-22T01:57:36.769Z,7.0785
2023-04-22T01:58:39.053Z,7.0622
2023-04-22T01:59:41.611Z,7.0805
2023-04-22T02:00:41.796Z,7.1622
2023-04-22T02:01:44.178Z,7.1318
2023-04-22T02:02:46.504Z,7.0747
2023-04-22T02:03:49.014Z,6.9912
2023-04-22T02:04:51.574Z,6.9252
2023-04-22T02:05:54.246Z,6.8690
2023-04-22T02:06:56.788Z,6.8617
2023-04-22T02:07:59.176Z,6.8696
2023-04-22T02:09:01.381Z,6.8488
2023-04-22T02:10:03.665Z,6.8589
2023-04-22T02:11:05.922Z,6.9685
2023-04-22T02:12:08.216Z,7.0116
2023-04-22T02:13:10.476Z,6.9616
2023-04-22T02:14:12.738Z,6.9858
2023-04-22T02:15:14.945Z,6.9749
2023-04-22T02:16:17.275Z,6.8148
2023-04-22T02:17:19.477Z,6.4844
2023-04-22T02:18:21.768Z,6.3440
2023-04-22T02:19:24.052Z,6.3038
2023-04-22T02:20:26.315Z,6.3330
2023-04-22T02:21:28.599Z,6.4052
2023-04-22T02:22:30.867Z,6.4414
2023-04-22T02:23:33.184Z,6.4239
2023-04-22T02:24:35.418Z,6.4085
2023-04-22T02:25:37.679Z,6.4419
2023-04-22T02:26:39.907Z,6.4698
2023-04-22T02:27:42.152Z,6.4037
2023-04-22T02:28:44.443Z,6.4159
2023-04-22T02:29:46.713Z,6.4061
2023-04-22T02:30:48.973Z,6.4916
2023-04-22T02:31:51.274Z,6.5704
2023-04-22T02:32:53.666Z,6.5116
2023-04-22T02:33:55.965Z,6.4908
2023-04-22T02:34:58.328Z,6.4551
2023-04-22T02:36:00.511Z,6.4917
2023-04-22T02:37:02.749Z,6.5223
2023-04-22T02:38:04.951Z,6.5137
2023-04-22T02:39:07.181Z,6.4741
2023-04-22T02:40:09.451Z,6.4471
2023-04-22T02:41:11.769Z,6.4688
2023-04-22T02:42:14.004Z,6.3227
2023-04-22T02:43:16.304Z,6.2433
2023-04-22T02:44:18.508Z,6.2092
2023-04-22T02:45:20.791Z,6.2142
2023-04-22T02:46:23.102Z,6.2219
2023-04-22T02:47:25.380Z,6.1749
2023-04-22T02:48:27.629Z,6.1586
2023-04-22T02:49:29.867Z,6.1281
2023-04-22T02:50:32.168Z,6.1376
2023-04-22T02:51:34.502Z,6.2701
2023-04-22T02:52:36.759Z,6.3489
2023-04-22T02:53:39.090Z,6.3577
2023-04-22T02:54:41.344Z,6.2926
2023-04-22T02:55:43.668Z,6.2787
2023-04-22T02:56:45.999Z,6.2804
2023-04-22T02:57:48.250Z,6.2728
2023-04-22T02:58:50.565Z,6.3271
2023-04-22T02:59:52.771Z,6.4460
2023-04-22T03:00:55.028Z,6.4721
2023-04-22T03:01:57.288Z,6.4748
2023-04-22T03:02:59.700Z,6.4648
2023-04-22T03:04:02.089Z,6.4854
2023-04-22T03:05:04.729Z,6.4576
2023-04-22T03:06:07.043Z,6.4670
2023-04-22T03:07:09.381Z,6.5168
2023-04-22T03:08:11.650Z,6.5228
2023-04-22T03:09:13.937Z,6.5556
2023-04-22T03:10:16.184Z,6.5045
2023-04-22T03:11:18.397Z,6.4665
2023-04-22T03:12:20.675Z,6.4964
2023-04-22T03:13:22.933Z,6.4839
2023-04-22T03:14:25.220Z,6.4904
2023-04-22T03:15:27.514Z,6.4543
2023-04-22T03:16:29.816Z,6.4272
2023-04-22T03:17:32.100Z,6.4456
2023-04-22T03:18:34.377Z,6.3895
2023-04-22T03:19:36.653Z,6.3848
2023-04-22T03:20:38.926Z,6.4181
2023-04-22T03:21:41.206Z,6.5116
2023-04-22T03:22:43.410Z,6.5479
2023-04-22T03:23:45.813Z,6.5224
2023-04-22T03:24:48.095Z,6.4838
2023-04-22T03:25:50.362Z,6.5055
2023-04-22T03:26:52.694Z,6.4600
2023-04-22T03:27:54.998Z,6.4800
2023-04-22T03:28:57.264Z,6.4838
2023-04-22T03:30:00.450Z,6.4636
2023-04-22T03:31:00.144Z,6.4565
2023-04-22T03:32:02.459Z,6.4454
2023-04-22T03:33:04.893Z,6.4913
2023-04-22T03:34:07.229Z,6.5578
2023-04-22T03:35:09.550Z,6.5588
2023-04-22T03:36:11.936Z,6.5592
2023-04-22T03:37:14.224Z,6.5366
2023-04-22T03:38:16.636Z,6.5580
2023-04-22T03:39:18.896Z,6.6175
2023-04-22T03:40:21.200Z,6.6570
2023-04-22T03:41:23.543Z,6.6449
2023-04-22T03:42:25.806Z,6.6022
2023-04-22T03:43:28.066Z,6.5848
2023-04-22T03:44:30.414Z,6.5959
2023-04-22T03:45:32.747Z,6.5153
2023-04-22T03:46:35.119Z,6.5530
2023-04-22T03:47:37.676Z,6.5580
2023-04-22T03:48:39.995Z,6.5153
2023-04-22T03:49:42.528Z,6.4584
2023-04-22T03:50:44.888Z,6.4051
2023-04-22T03:51:47.262Z,6.4226
2023-04-22T03:52:49.579Z,6.4524
2023-04-22T03:53:51.918Z,6.4723
2023-04-22T03:54:54.215Z,6.4694
2023-04-22T03:55:56.564Z,6.4567
2023-04-22T03:56:58.899Z,6.4302
2023-04-22T03:58:01.288Z,6.3085
2023-04-22T03:59:03.632Z,6.2671
2023-04-22T04:00:05.941Z,6.1017
2023-04-22T04:01:08.293Z,6.0812
2023-04-22T04:02:10.756Z,6.1419
2023-04-22T04:03:13.288Z,6.3574
2023-04-22T04:04:15.884Z,6.4551
2023-04-22T04:05:15.959Z,6.3401
2023-04-22T04:06:15.990Z,6.2675
2023-04-22T04:07:18.451Z,6.2454
2023-04-22T04:08:20.778Z,6.2253
2023-04-22T04:09:23.082Z,6.2346
2023-04-22T04:10:25.444Z,6.2718
2023-04-22T04:11:27.767Z,6.2226
2023-04-22T04:12:30.022Z,6.2123
2023-04-22T04:13:32.474Z,6.2549
2023-04-22T04:14:34.844Z,6.2530
2023-04-22T04:15:37.183Z,6.2491
2023-04-22T04:16:39.477Z,6.2350
2023-04-22T04:17:41.838Z,6.3123
2023-04-22T04:18:44.162Z,6.4142
2023-04-22T04:19:46.503Z,6.4839
2023-04-22T04:20:48.819Z,6.4967
2023-04-22T04:21:51.141Z,6.4807
2023-04-22T04:22:53.415Z,6.4690
2023-04-22T04:23:55.792Z,6.4857
2023-04-22T04:24:58.182Z,6.5034
2023-04-22T04:26:00.476Z,6.5386
2023-04-22T04:27:02.756Z,6.5894
2023-04-22T04:28:05.080Z,6.6128
2023-04-22T04:29:07.433Z,6.6406
2023-04-22T04:30:09.759Z,6.7039
2023-04-22T04:31:12.063Z,6.7759
2023-04-22T04:32:14.374Z,6.7907
2023-04-22T04:33:16.692Z,6.7893
2023-04-22T04:34:19.092Z,6.8239
2023-04-22T04:35:21.406Z,6.8319
2023-04-22T04:36:23.698Z,6.8485
2023-04-22T04:37:26.016Z,6.8209
2023-04-22T04:38:28.395Z,6.8475
2023-04-22T04:39:30.815Z,6.8493
2023-04-22T04:40:33.128Z,6.8086
2023-04-22T04:41:35.466Z,6.9070
2023-04-22T04:42:37.748Z,6.9809
2023-04-22T04:43:40.077Z,7.0370
2023-04-22T04:44:42.444Z,7.0064
2023-04-22T04:45:46.870Z,7.0027
2023-04-22T04:46:45.320Z,6.9966
2023-04-22T04:47:47.629Z,7.0253
2023-04-22T04:48:49.980Z,7.0648
2023-04-22T04:49:52.350Z,7.0507
2023-04-22T04:50:54.631Z,7.0376
2023-04-22T04:51:56.976Z,7.0324
2023-04-22T04:52:59.399Z,7.0184
2023-04-22T04:54:01.749Z,7.0112
2023-04-22T04:55:04.144Z,7.0252
2023-04-22T04:56:06.566Z,6.9702
2023-04-22T04:57:08.954Z,6.9295
2023-04-22T04:58:11.284Z,6.9262
2023-04-22T04:59:13.601Z,6.9928
2023-04-22T05:00:16.012Z,7.0103
2023-04-22T05:01:18.323Z,6.9954
2023-04-22T05:02:20.882Z,7.0233
2023-04-22T05:03:20.850Z,7.0453
2023-04-22T05:04:23.377Z,7.0689
2023-04-22T05:05:25.844Z,7.1167
2023-04-22T05:06:28.103Z,7.0806
2023-04-22T05:07:30.448Z,7.0728
2023-04-22T05:08:32.837Z,7.0481
2023-04-22T05:09:35.109Z,7.0382
2023-04-22T05:10:37.464Z,7.0232
2023-04-22T05:11:39.813Z,6.9913
2023-04-22T05:12:42.183Z,6.9713
2023-04-22T05:13:44.456Z,6.9436
2023-04-22T05:14:46.737Z,6.9276
2023-04-22T05:15:49.076Z,6.8795
2023-04-22T05:16:51.352Z,6.7601
2023-04-22T05:17:53.653Z,6.6885
2023-04-22T05:18:56.010Z,6.4727
2023-04-22T05:19:58.372Z,6.1960
2023-04-22T05:21:00.711Z,5.9712
2023-04-22T05:22:03.135Z,5.8573
2023-04-22T05:23:05.405Z,5.7942
2023-04-22T05:24:07.727Z,5.7564
2023-04-22T05:25:10.011Z,5.7480
2023-04-22T05:26:12.333Z,5.7203
2023-04-22T05:27:14.650Z,5.7151
2023-04-22T05:28:16.981Z,5.7338
2023-04-22T05:29:19.288Z,5.7760
2023-04-22T05:30:21.628Z,5.7900
2023-04-22T05:31:23.952Z,5.8238
2023-04-22T05:32:26.692Z,5.9029
2023-04-22T05:33:29.085Z,6.0598
2023-04-22T05:34:31.403Z,6.1987
2023-04-22T05:35:33.817Z,6.2689
2023-04-22T05:36:36.137Z,6.3133
2023-04-22T05:37:38.487Z,6.3450
2023-04-22T05:38:40.977Z,6.4042
2023-04-22T05:39:43.241Z,6.4634
2023-04-22T05:40:45.591Z,6.4794
2023-04-22T05:41:47.936Z,6.4868
2023-04-22T05:42:50.283Z,6.5378
2023-04-22T05:43:52.680Z,6.5592
2023-04-22T05:44:55.054Z,6.5298
2023-04-22T05:45:57.379Z,6.5086
2023-04-22T05:46:59.782Z,6.4838
2023-04-22T05:48:02.160Z,6.5005
2023-04-22T05:49:04.495Z,6.5437
2023-04-22T05:50:06.792Z,6.5427
2023-04-22T05:51:09.068Z,6.5637
2023-04-22T05:52:11.358Z,6.5666
2023-04-22T05:53:13.653Z,6.5991
2023-04-22T05:54:15.962Z,6.5637
2023-04-22T05:55:18.262Z,6.6050
2023-04-22T05:56:20.566Z,6.5012
2023-04-22T05:57:22.875Z,6.4449
2023-04-22T05:58:25.195Z,6.4142
2023-04-22T05:59:27.655Z,6.4266
2023-04-22T06:00:30.029Z,6.4647
2023-04-22T06:01:32.361Z,6.5065
2023-04-22T06:02:34.807Z,6.5012
2023-04-22T06:03:37.443Z,6.4980
2023-04-22T06:04:38.402Z,6.5307
2023-04-22T06:05:38.871Z,6.5666
2023-04-22T06:06:38.850Z,6.6029
2023-04-22T06:07:41.231Z,6.6079
2023-04-22T06:08:43.544Z,6.5807
2023-04-22T06:09:45.903Z,6.6285
2023-04-22T06:10:48.238Z,6.6634
2023-04-22T06:11:50.529Z,6.6634
2023-04-22T06:12:52.848Z,6.6840
2023-04-22T06:13:55.228Z,6.7091
2023-04-22T06:14:57.555Z,6.7475
2023-04-22T06:16:00.064Z,6.7920
2023-04-22T06:17:02.423Z,6.8332
2023-04-22T06:18:04.710Z,6.8634
2023-04-22T06:19:06.982Z,6.9007
2023-04-22T06:20:09.310Z,6.9043
2023-04-22T06:21:11.682Z,6.9611
2023-04-22T06:22:14.024Z,7.0139
2023-04-22T06:23:16.326Z,7.0322
2023-04-22T06:24:18.607Z,7.0586
2023-04-22T06:25:20.894Z,7.0961
2023-04-22T06:26:23.221Z,7.1430
2023-04-22T06:27:25.588Z,7.1743
2023-04-22T06:28:27.920Z,7.2286
2023-04-22T06:29:30.194Z,7.2793
2023-04-22T06:30:32.472Z,7.3070
2023-04-22T06:31:34.801Z,7.3525
2023-04-22T06:32:37.113Z,7.3984
2023-04-22T06:33:39.439Z,7.4657
2023-04-22T06:34:41.802Z,7.4936
2023-04-22T06:35:44.167Z,7.5747
2023-04-22T06:36:46.448Z,7.6688
2023-04-22T06:37:48.799Z,7.7479
2023-04-22T06:38:51.155Z,7.7782
2023-04-22T06:39:53.447Z,7.8190
2023-04-22T06:40:55.764Z,7.7931
2023-04-22T06:41:58.049Z,7.8719
2023-04-22T06:43:00.432Z,7.9611
2023-04-22T06:44:02.819Z,8.0298
2023-04-22T06:45:05.122Z,8.0566
2023-04-22T06:46:07.484Z,8.0861
2023-04-22T06:47:09.815Z,8.0614
2023-04-22T06:48:12.098Z,8.0708
2023-04-22T06:49:14.411Z,8.0566
2023-04-22T06:50:16.712Z,8.1904
2023-04-22T06:51:18.998Z,8.2361
2023-04-22T06:52:21.922Z,8.3811
2023-04-22T06:53:23.321Z,8.4097
2023-04-22T06:54:26.001Z,8.4617
2023-04-22T06:55:28.284Z,8.4855
2023-04-22T06:56:30.656Z,8.4629
2023-04-22T06:57:32.946Z,8.5625
2023-04-22T06:58:35.221Z,8.5760
2023-04-22T06:59:37.644Z,8.7007
2023-04-22T07:00:37.617Z,8.7608
2023-04-22T07:01:39.956Z,8.7783
2023-04-22T07:02:42.431Z,8.8474
2023-04-22T07:03:44.959Z,8.8243
2023-04-22T07:04:47.301Z,8.8256
2023-04-22T07:05:49.587Z,8.8878
2023-04-22T07:06:51.965Z,8.9720
2023-04-22T07:07:54.278Z,8.9805
2023-04-22T07:08:56.590Z,9.0794
2023-04-22T07:09:58.904Z,9.1163
2023-04-22T07:11:01.201Z,9.0447
2023-04-22T07:12:01.799Z,9.0970
2023-04-22T07:13:04.159Z,8.9922
2023-04-22T07:14:06.478Z,9.0586
2023-04-22T07:15:08.820Z,9.1503
2023-04-22T07:16:11.221Z,9.2160
2023-04-22T07:17:13.536Z,9.1430
2023-04-22T07:18:15.949Z,9.1669
2023-04-22T07:19:18.244Z,9.2540
2023-04-22T07:20:20.573Z,9.3411
2023-04-22T07:21:22.882Z,9.3810
2023-04-22T07:22:25.154Z,9.5773
2023-04-22T07:23:27.379Z,9.4840
2023-04-22T07:24:29.639Z,9.5362
2023-04-22T07:25:31.949Z,9.5590
2023-04-22T07:26:34.214Z,9.5490
2023-04-22T07:27:37.288Z,9.5789
2023-04-22T07:28:37.274Z,9.6005
2023-04-22T07:29:39.862Z,9.7084
2023-04-22T07:30:39.790Z,9.6529
2023-04-22T07:31:42.049Z,9.5906
2023-04-22T07:32:45.101Z,9.6860
2023-04-22T07:33:45.751Z,9.8415
2023-04-22T07:34:48.054Z,9.9474
2023-04-22T07:35:50.331Z,9.8603
2023-04-22T07:36:52.810Z,9.7361
2023-04-22T07:37:55.278Z,9.8051
2023-04-22T07:38:57.754Z,9.9067
2023-04-22T07:40:00.099Z,9.9505
2023-04-22T07:41:02.402Z,9.8794
2023-04-22T07:42:04.730Z,9.8652
2023-04-22T07:43:07.026Z,9.9484
2023-04-22T07:44:09.338Z,10.0143
2023-04-22T07:45:10.941Z,10.1118
2023-04-22T07:46:13.267Z,10.0912
2023-04-22T07:47:15.640Z,10.0835
2023-04-22T07:48:17.942Z,10.1105
2023-04-22T07:49:20.248Z,10.1488
2023-04-22T07:50:22.547Z,10.2275
2023-04-22T07:51:24.922Z,10.2687
2023-04-22T07:52:27.187Z,10.2828
2023-04-22T07:53:29.494Z,10.3573
2023-04-22T07:54:31.968Z,10.3489
2023-04-22T07:55:34.258Z,10.3008
2023-04-22T07:56:36.633Z,10.4132
2023-04-22T07:57:38.930Z,10.5063
2023-04-22T07:58:41.287Z,10.4136
2023-04-22T07:59:43.579Z,10.5120
2023-04-22T08:00:46.017Z,10.4344
2023-04-22T08:01:46.827Z,10.4124
2023-04-22T08:02:49.193Z,10.4711
2023-04-22T08:03:51.844Z,10.5104
2023-04-22T08:04:52.119Z,10.6003
2023-04-22T08:05:52.125Z,10.6460
2023-04-22T08:06:54.500Z,10.6861
2023-04-22T08:07:56.765Z,10.7222
2023-04-22T08:08:59.173Z,10.7732
2023-04-22T08:10:01.393Z,10.8055
2023-04-22T08:11:03.615Z,10.8384
2023-04-22T08:12:05.972Z,10.8308
2023-04-22T08:13:08.283Z,10.7010
2023-04-22T08:14:10.629Z,10.7020
2023-04-22T08:15:12.934Z,10.8185
2023-04-22T08:16:15.255Z,10.8320
2023-04-22T08:17:17.487Z,10.8485
2023-04-22T08:18:19.784Z,10.7381
2023-04-22T08:19:22.136Z,10.8682
2023-04-22T08:20:24.458Z,10.9082
2023-04-22T08:21:26.811Z,10.9614
2023-04-22T08:22:29.142Z,11.0744
2023-04-22T08:23:31.466Z,11.0132
2023-04-22T08:24:33.901Z,11.1023
2023-04-22T08:25:36.232Z,11.2599
2023-04-22T08:26:38.592Z,11.1795
2023-04-22T08:27:40.902Z,11.2253
2023-04-22T08:28:43.255Z,11.1410
2023-04-22T08:29:45.574Z,11.1953
2023-04-22T08:30:47.904Z,11.3751
2023-04-22T08:31:50.258Z,11.4626
2023-04-22T08:32:52.668Z,11.5256
2023-04-22T08:33:54.976Z,11.6337
2023-04-22T08:35:03.881Z,11.7187
2023-04-22T08:35:57.656Z,11.6620
2023-04-22T08:37:00.074Z,11.7368
2023-04-22T08:38:02.416Z,11.7303
2023-04-22T08:39:04.733Z,11.9427
2023-04-22T08:40:07.120Z,11.9762
2023-04-22T08:41:09.405Z,12.0027
2023-04-22T08:42:11.733Z,12.1229
2023-04-22T08:43:14.051Z,12.2515
2023-04-22T08:44:16.319Z,12.3437
2023-04-22T08:45:18.669Z,12.2949
2023-04-22T08:46:21.239Z,12.2818
2023-04-22T08:47:23.604Z,12.3879
2023-04-22T08:48:26.017Z,12.4210
2023-04-22T08:49:28.340Z,12.5632
2023-04-22T08:50:30.720Z,12.6089
2023-04-22T08:51:33.069Z,12.3734
2023-04-22T08:52:35.440Z,12.4190
2023-04-22T08:53:37.730Z,12.5589
2023-04-22T08:54:40.058Z,12.5456
2023-04-22T08:55:42.365Z,12.6444
2023-04-22T08:56:44.682Z,12.7492
2023-04-22T08:57:47.015Z,12.8840
2023-04-22T08:58:49.294Z,12.6937
2023-04-22T08:59:51.634Z,12.6748
2023-04-22T09:00:53.955Z,12.7729
2023-04-22T09:01:56.318Z,12.8776
2023-04-22T09:02:58.835Z,13.0445
2023-04-22T09:03:58.790Z,13.1829
2023-04-22T09:05:01.134Z,13.3391
2023-04-22T09:06:03.401Z,13.3864
2023-04-22T09:07:05.714Z,13.2893
2023-04-22T09:08:08.108Z,13.2757
2023-04-22T09:09:10.380Z,13.3461
2023-04-22T09:10:12.663Z,13.3168
2023-04-22T09:11:15.031Z,13.2118
2023-04-22T09:12:17.316Z,13.1564
2023-04-22T09:13:19.669Z,13.1955
2023-04-22T09:14:21.994Z,13.1760
2023-04-22T09:15:24.311Z,13.2415
2023-04-22T09:16:26.652Z,13.4232
2023-04-22T09:17:28.958Z,13.3977
2023-04-22T09:18:31.253Z,13.3992
2023-04-22T09:19:33.603Z,13.4969
2023-04-22T09:20:35.950Z,13.6515
2023-04-22T09:21:38.260Z,13.7917
2023-04-22T09:22:40.622Z,13.6691
2023-04-22T09:23:42.909Z,13.6455
2023-04-22T09:24:45.279Z,13.6610
2023-04-22T09:25:47.531Z,13.8794
2023-04-22T09:26:49.850Z,13.8816
2023-04-22T09:27:52.084Z,13.8926
2023-04-22T09:28:54.314Z,13.9711
2023-04-22T09:29:56.571Z,14.0443
2023-04-22T09:30:58.834Z,13.9739
2023-04-22T09:32:01.128Z,13.9632
2023-04-22T09:33:03.455Z,14.0413
2023-04-22T09:34:05.708Z,14.2043
2023-04-22T09:35:07.943Z,14.3433
2023-04-22T09:36:10.254Z,14.2884
2023-04-22T09:37:12.573Z,14.1891
2023-04-22T09:38:14.808Z,14.3541
2023-04-22T09:39:17.056Z,14.2206
2023-04-22T09:40:19.316Z,14.3326
2023-04-22T09:41:21.568Z,14.1212
2023-04-22T09:42:23.840Z,14.1581
2023-04-22T09:43:26.097Z,14.3866
2023-04-22T09:44:28.404Z,14.7276
2023-04-22T09:45:30.722Z,14.8245
2023-04-22T09:46:32.936Z,14.8456
2023-04-22T09:47:35.191Z,14.8312
2023-04-22T09:48:37.439Z,14.8209
2023-04-22T09:49:39.998Z,14.6792
2023-04-22T09:50:39.854Z,14.9035
2023-04-22T09:51:42.070Z,14.9786
2023-04-22T09:52:44.353Z,14.9836
2023-04-22T09:53:46.625Z,14.6464
2023-04-22T09:54:48.975Z,14.7998
2023-04-22T09:55:51.237Z,14.9343
2023-04-22T09:56:53.512Z,15.0918
2023-04-22T09:57:55.781Z,15.3322
2023-04-22T09:58:58.064Z,15.2135
2023-04-22T10:00:00.353Z,15.1443
2023-04-22T10:01:02.685Z,15.1939
2023-04-22T10:02:03.267Z,15.2119
2023-04-22T10:03:07.935Z,15.2463
2023-04-22T10:04:05.831Z,15.3690
2023-04-22T10:05:08.072Z,15.3823
2023-04-22T10:06:10.350Z,15.3887
2023-04-22T10:07:12.589Z,15.4569
2023-04-22T10:08:14.864Z,15.4042
2023-04-22T10:09:17.166Z,15.4399
2023-04-22T10:10:19.466Z,15.4507
2023-04-22T10:11:21.757Z,15.1919
2023-04-22T10:12:32.911Z,15.0580
2023-04-22T10:13:24.176Z,15.3020
2023-04-22T10:14:26.410Z,15.2383
2023-04-22T10:15:28.703Z,15.1030
2023-04-22T10:16:30.995Z,15.0855
2023-04-22T10:17:33.229Z,15.1819
2023-04-22T10:18:35.492Z,15.3839
2023-04-22T10:19:37.906Z,15.4594
2023-04-22T10:20:37.782Z,15.3573
2023-04-22T10:21:40.061Z,15.4601
2023-04-22T10:22:42.348Z,15.5185
2023-04-22T10:23:44.627Z,15.4550
2023-04-22T10:24:46.886Z,15.4708
2023-04-22T10:25:49.176Z,15.5506
2023-04-22T10:26:51.420Z,15.4847
2023-04-22T10:27:53.699Z,15.4763
2023-04-22T10:28:55.939Z,15.6022
2023-04-22T10:29:58.220Z,15.6990
2023-04-22T10:31:00.438Z,15.7780
2023-04-22T10:32:02.652Z,16.0330
2023-04-22T10:33:04.888Z,16.1330
2023-04-22T10:34:07.134Z,16.2735
2023-04-22T10:35:09.863Z,16.4093
2023-04-22T10:36:09.682Z,16.3469
2023-04-22T10:37:11.923Z,16.4618
2023-04-22T10:38:14.182Z,16.4061
2023-04-22T10:39:16.424Z,16.0183
2023-04-22T10:40:18.718Z,15.8187
2023-04-22T10:41:20.952Z,15.7012
2023-04-22T10:42:23.310Z,15.9030
2023-04-22T10:43:25.607Z,16.2136
2023-04-22T10:44:27.878Z,16.2407
2023-04-22T10:45:30.116Z,16.3751
2023-04-22T10:46:32.389Z,16.1477
2023-04-22T10:47:34.718Z,16.2565
2023-04-22T10:48:36.928Z,16.2423
2023-04-22T10:49:39.365Z,16.2717
2023-04-22T10:50:39.393Z,16.3243
2023-04-22T10:51:41.724Z,16.3505
2023-04-22T10:52:44.040Z,16.2316
2023-04-22T10:53:46.292Z,16.4135
2023-04-22T10:54:48.623Z,16.3939
2023-04-22T10:55:50.879Z,16.2953
2023-04-22T10:56:58.381Z,16.2580
2023-04-22T10:57:53.335Z,16.2193
2023-04-22T10:58:55.630Z,16.2835
2023-04-22T10:59:57.865Z,16.3445
2023-04-22T11:01:00.356Z,16.4273
2023-04-22T11:02:02.633Z,16.5974
2023-04-22T11:03:05.042Z,16.7224
2023-04-22T11:04:07.396Z,16.8901
2023-04-22T11:05:09.676Z,16.7879
2023-04-22T11:06:12.073Z,16.7317
2023-04-22T11:07:14.413Z,16.7804
2023-04-22T11:08:16.770Z,16.8870
2023-04-22T11:09:18.978Z,17.0678
2023-04-22T11:10:21.185Z,16.9805
2023-04-22T11:11:23.461Z,16.7747
2023-04-22T11:12:25.721Z,16.9207
2023-04-22T11:13:28.012Z,17.3273
2023-04-22T11:14:30.252Z,17.2584
2023-04-22T11:15:32.664Z,17.3977
2023-04-22T11:16:34.905Z,17.6840
2023-04-22T11:17:37.156Z,17.7057
2023-04-22T11:18:39.525Z,17.9282
2023-04-22T11:19:41.760Z,18.0231
2023-04-22T11:20:44.024Z,18.1746
2023-04-22T11:21:46.221Z,18.3900
2023-04-22T11:22:48.474Z,18.6231
2023-04-22T11:23:50.705Z,18.1970
2023-04-22T11:24:52.885Z,18.0498
2023-04-22T11:25:55.270Z,17.8901
2023-04-22T11:26:55.836Z,17.8461
2023-04-22T11:27:58.270Z,17.8388
2023-04-22T11:29:00.535Z,18.1540
2023-04-22T11:30:02.749Z,18.5519
2023-04-22T11:31:05.077Z,18.6819
2023-04-22T11:32:07.244Z,18.9017
2023-04-22T11:33:09.375Z,18.6749
2023-04-22T11:34:11.586Z,18.4530
2023-04-22T11:35:13.827Z,18.9509
2023-04-22T11:36:15.993Z,19.0769
2023-04-22T11:37:18.107Z,18.7091
2023-04-22T11:38:20.437Z,19.3249
2023-04-22T11:39:22.056Z,19.2589
2023-04-22T11:41:24.545Z,19.0210
2023-04-22T11:42:26.690Z,19.0503
2023-04-22T11:43:28.876Z,18.8036
2023-04-22T11:44:31.036Z,19.0858
2023-04-22T11:45:33.299Z,19.3989
2023-04-22T11:46:35.549Z,18.9655
2023-04-22T11:47:37.731Z,19.0145
2023-04-22T11:48:39.889Z,18.6914
2023-04-22T11:49:42.038Z,18.3448
2023-04-22T11:50:44.247Z,18.1471
2023-04-22T11:51:46.431Z,18.3412
2023-04-22T11:52:48.608Z,18.4260
2023-04-22T11:53:50.789Z,18.8621
2023-04-22T11:54:52.910Z,19.5316
2023-04-22T11:55:55.120Z,19.8300
2023-04-22T11:56:57.296Z,19.6436
2023-04-22T11:57:59.456Z,19.7454
2023-04-22T11:59:01.623Z,19.7017
2023-04-22T12:00:03.780Z,19.8146
2023-04-22T12:01:05.962Z,20.4088
2023-04-22T12:02:08.200Z,20.1075
2023-04-22T12:03:12.681Z,19.6605
2023-04-22T12:04:11.769Z,19.3397
2023-04-22T12:05:11.584Z,19.0404
2023-04-22T12:06:13.680Z,19.0986
2023-04-22T12:07:15.807Z,19.1350
2023-04-22T12:08:17.902Z,18.6288
2023-04-22T12:09:20.067Z,18.4864
2023-04-22T12:10:22.259Z,18.3515
2023-04-22T12:11:24.424Z,18.0880
2023-04-22T12:12:26.614Z,18.3289
2023-04-22T12:13:28.797Z,18.3852
2023-04-22T12:14:30.940Z,18.4546
2023-04-22T12:15:33.116Z,18.4370
2023-04-22T12:16:35.307Z,18.0890
2023-04-22T12:17:37.427Z,18.3062
2023-04-22T12:18:39.702Z,17.9869
2023-04-22T12:19:42.069Z,17.9804
2023-04-22T12:20:41.938Z,18.0270
2023-04-22T12:21:44.339Z,18.0046
2023-04-22T12:22:46.503Z,17.5851
2023-04-22T12:23:48.709Z,17.6243
2023-04-22T12:24:50.918Z,17.8118
2023-04-22T12:25:53.144Z,17.8328
2023-04-22T12:26:55.405Z,17.6920
2023-04-22T12:27:57.577Z,17.6728
2023-04-22T12:28:59.792Z,17.8295
2023-04-22T12:30:02.000Z,17.9123
2023-04-22T12:31:04.264Z,17.6500
2023-04-22T12:32:06.496Z,17.6550
2023-04-22T12:33:08.831Z,17.7028
2023-04-22T12:34:11.005Z,17.6871
2023-04-22T12:35:13.278Z,17.7757
2023-04-22T12:36:15.472Z,17.6854
2023-04-22T12:37:17.718Z,17.6294
2023-04-22T12:38:19.914Z,17.7033
2023-04-22T12:39:22.188Z,17.6490
2023-04-22T12:40:24.316Z,17.8724
2023-04-22T12:41:26.545Z,17.9568
2023-04-22T12:42:28.755Z,17.8933
2023-04-22T12:43:30.982Z,17.8982
2023-04-22T12:44:33.173Z,17.8263
2023-04-22T12:45:35.386Z,17.7568
2023-04-22T12:46:37.604Z,18.0100
2023-04-22T12:47:39.851Z,17.9842